BY1454 / G-FDZT 7700 Squawk Report (20th of June, 2019)

Aircraft B738 Reg No. G-FDZT Age 8 years old
Model 737 Jet engines 2 First flight 14-01-11
Registered 02-10-17 Rollout 06-01-11 Delivered 31-01-11
Construction No. 37248 Line No. 3532 Series 8K5
ADSHEX 406471 Airline name TUI Airways Owner TUI AG
Airfield based Luton~Beds~G First tracked 2017-07-13 08:55:00

Flight history for G-FDZT

Route Flight No Date Playback
Pula (PUY) - Birmingham (BHX) BY7225 2019-07-23 23:11:00
Bournemouth (BOH) - Son Sant Joan (PMI) BY6728 2019-07-23 18:20:00
???? TOM7257 2019-07-23 14:39:00
Birmingham (BHX) - Reus (REU) BY7256 2019-07-23 10:17:00
Birmingham (BHX) - Manchester (MAN) N/A 2019-07-23 08:24:00
Hammamet International Airport (NBE) - Gatwick (LGW) BY491 2019-07-23 06:29:00
Gatwick (LGW) - Hammamet International Airport (NBE) BY490 2019-07-23 01:05:00
???? N/A 2019-07-22 21:04:00
???? N/A 2019-07-22 20:21:00
Menorca (MAH) - Gatwick (LGW) BY4311 2019-07-22 15:55:00
Menorca (MAH) - Birmingham (BHX) BY7119 2019-07-22 13:51:00
Bristol (BRS) - Menorca (MAH) BY6110 2019-07-22 09:00:00
Antalya (AYT) - East Midlands Airport (EMA) N/A 2019-07-22 05:26:00
East Midlands Airport (EMA) - Antalya (AYT) N/A 2019-07-21 19:16:00
Ivalo (IVL) - Gatwick (LGW) BY6106 2019-07-21 14:52:00
Bristol (BRS) - Kefallinia (EFL) BY6770 2019-07-21 08:49:00
Cardiff (CWL) - Ibiza (IBZ) BY4325 2019-07-21 05:58:00
Norwich (NWI) - Tenerife Sur (TFS) BY5750 2019-07-20 21:59:00
Alicante (ALC) - Bristol (BRS) BY6691 2019-07-20 18:12:00
Bristol (BRS) - Alicante (ALC) BY6690 2019-07-20 10:19:00
Time Lat Lon Altitude Heading Speed Vertical Rate
2019-06-20 06:17:20 GMT 55.864967 -4.433992 0 112 5 0
2019-06-20 06:17:14 GMT 55.864941 -4.434232 0 112 6 0
2019-06-20 06:17:04 GMT 55.864861 -4.434773 0 112 8 0
2019-06-20 06:16:51 GMT 55.865326 -4.435194 0 163 12 0
2019-06-20 06:15:49 GMT 55.866966 -4.438185 0 45 16 0
2019-06-20 06:15:43 GMT 55.866711 -4.438648 0 45 16 0
2019-06-20 06:15:29 GMT 55.866051 -4.439893 0 47 17 0
2019-06-20 06:15:25 GMT 55.865856 -4.440266 0 45 16 0
2019-06-20 06:15:11 GMT 55.865177 -4.441545 0 47 14 0
2019-06-20 06:15:05 GMT 55.864929 -4.442014 0 47 13 0
2019-06-20 06:15:00 GMT 55.864723 -4.442382 0 47 12 0
2019-06-20 06:14:51 GMT 55.864414 -4.442971 0 45 11 0
2019-06-20 06:14:45 GMT 55.864220 -4.443325 0 45 11 0
2019-06-20 06:14:35 GMT 55.863907 -4.443905 0 47 11 0
2019-06-20 06:14:28 GMT 55.863686 -4.444313 0 47 11 0
2019-06-20 06:14:25 GMT 55.863605 -4.444485 0 47 11 0
2019-06-20 06:14:15 GMT 55.863266 -4.445128 0 45 12 0
2019-06-20 06:14:10 GMT 55.863083 -4.445429 0 45 13 0
2019-06-20 06:14:04 GMT 55.862885 -4.445794 0 45 12 0
2019-06-20 06:13:59 GMT 55.862698 -4.446134 0 53 12 0
2019-06-20 06:13:54 GMT 55.862556 -4.446502 0 70 12 0
2019-06-20 06:13:43 GMT 55.862663 -4.447361 0 135 12 0
2019-06-20 06:13:37 GMT 55.862892 -4.447736 0 135 12 0
2019-06-20 06:13:33 GMT 55.863033 -4.447982 0 137 12 0
2019-06-20 06:13:27 GMT 55.863266 -4.448347 0 149 11 0
2019-06-20 06:13:24 GMT 55.863441 -4.448519 0 174 11 0
2019-06-20 06:13:17 GMT 55.863693 -4.448506 0 205 10 0
2019-06-20 06:13:13 GMT 55.863850 -4.448347 0 219 10 0
2019-06-20 06:13:07 GMT 55.864048 -4.448025 0 225 10 0
2019-06-20 06:13:03 GMT 55.864162 -4.447811 0 227 10 0
2019-06-20 06:12:57 GMT 55.864323 -4.447528 0 227 9 0
2019-06-20 06:12:53 GMT 55.864429 -4.447317 0 225 8 0
2019-06-20 06:12:43 GMT 55.864620 -4.446966 0 225 5 0
2019-06-20 06:12:33 GMT 55.864746 -4.446716 0 225 2 0
2019-06-20 06:12:21 GMT 55.864769 -4.446675 0 225 0 0
2019-06-20 06:12:06 GMT 55.864769 -4.446673 0 225 0 0
2019-06-20 06:11:57 GMT 55.864769 -4.446675 0 225 0 0
2019-06-20 06:11:51 GMT 55.864769 -4.446673 0 225 0 0
2019-06-20 06:11:37 GMT 55.864769 -4.446675 0 225 0 0
2019-06-20 06:11:27 GMT 55.864769 -4.446673 0 225 0 0
2019-06-20 06:11:17 GMT 55.864780 -4.446673 0 225 0 0
2019-06-20 06:10:56 GMT 55.864769 -4.446675 0 225 0 0
2019-06-20 06:10:27 GMT 55.864769 -4.446673 0 225 0 0
2019-06-20 06:10:16 GMT 55.864769 -4.446675 0 225 0 0
2019-06-20 06:10:06 GMT 55.864769 -4.446673 0 225 0 0
2019-06-20 06:09:56 GMT 55.864769 -4.446675 0 225 0 0
2019-06-20 06:09:46 GMT 55.864780 -4.446673 0 225 0 0
2019-06-20 06:09:36 GMT 55.864769 -4.446675 0 225 0 0
2019-06-20 06:09:26 GMT 55.864780 -4.446675 0 225 0 0
2019-06-20 06:09:06 GMT 55.864780 -4.446673 0 225 0 0
2019-06-20 06:08:56 GMT 55.864780 -4.446675 0 225 0 0
2019-06-20 06:08:36 GMT 55.864780 -4.446673 0 225 0 0
2019-06-20 06:08:26 GMT 55.864780 -4.446675 0 225 0 0
2019-06-20 06:08:02 GMT 55.864780 -4.446673 0 225 0 0
2019-06-20 06:07:51 GMT 55.864769 -4.446675 0 225 0 0
2019-06-20 06:07:36 GMT 55.864780 -4.446673 0 225 0 0
2019-06-20 06:07:15 GMT 55.864780 -4.446675 0 225 0 0
2019-06-20 06:07:05 GMT 55.864780 -4.446673 0 225 0 0
2019-06-20 06:06:53 GMT 55.864792 -4.446633 0 225 6 0
2019-06-20 06:06:44 GMT 55.864990 -4.446266 0 225 15 0
2019-06-20 06:06:37 GMT 55.865398 -4.445493 0 225 25 0
2019-06-20 06:06:33 GMT 55.865650 -4.445031 0 225 27 0
2019-06-20 06:06:28 GMT 55.866096 -4.444206 0 225 34 0
2019-06-20 06:06:21 GMT 55.867023 -4.442472 0 225 58 0
2019-06-20 06:06:11 GMT 55.868969 -4.438820 0 225 90 0
2019-06-20 06:06:00 GMT 55.872768 -4.431756 0 225 145 0
2019-06-20 06:05:52 GMT 55.876511 -4.424827 225 227 147 -512
2019-06-20 06:05:42 GMT 55.881409 -4.415505 325 227 147 -640
2019-06-20 06:05:33 GMT 55.885071 -4.408680 525 227 145 -704
2019-06-20 06:05:22 GMT 55.890198 -4.398942 825 227 145 -640
2019-06-20 06:05:13 GMT 55.894409 -4.390952 700 227 145 -960
2019-06-20 06:05:03 GMT 55.899090 -4.382257 850 226 144 -768
2019-06-20 06:05:00 GMT 55.900360 -4.379966 1,050 227 144 -704
2019-06-20 06:04:50 GMT 55.904861 -4.371700 1,050 227 143 -704
2019-06-20 06:04:41 GMT 55.909191 -4.363632 1,125 227 142 -704
2019-06-20 06:04:31 GMT 55.913658 -4.355135 1,250 227 146 -768
2019-06-20 06:04:28 GMT 55.914963 -4.352732 1,275 227 147 -768
2019-06-20 06:04:22 GMT 55.918213 -4.346674 1,350 227 155 -768
2019-06-20 06:04:15 GMT 55.921574 -4.340458 1,450 227 159 -832
2019-06-20 06:04:12 GMT 55.923248 -4.337352 1,500 227 161 -896
2019-06-20 06:04:08 GMT 55.925159 -4.333763 1,550 227 163 -896
2019-06-20 06:04:03 GMT 55.927963 -4.328613 1,650 227 166 -896
2019-06-20 06:04:00 GMT 55.929199 -4.326200 1,675 227 166 -896
2019-06-20 06:03:53 GMT 55.933582 -4.317799 1,825 228 170 -896
2019-06-20 06:03:50 GMT 55.934750 -4.315481 1,850 228 171 -896
2019-06-20 06:03:45 GMT 55.937576 -4.309970 2,100 227 176 -768
2019-06-20 06:03:42 GMT 55.938984 -4.307327 1,950 227 176 -768
2019-06-20 06:03:39 GMT 55.940369 -4.304726 2,000 228 177 -832
2019-06-20 06:03:34 GMT 55.943161 -4.299316 2,075 227 178 -896
2019-06-20 06:03:30 GMT 55.945454 -4.294968 2,150 227 178 -896
2019-06-20 06:03:27 GMT 55.949066 -4.288247 2,200 227 178 -960
2019-06-20 06:03:24 GMT 55.949066 -4.288247 2,250 226 178 -896
2019-06-20 06:03:21 GMT 55.951218 -4.284252 2,300 226 178 -896
2019-06-20 06:03:15 GMT 55.954376 -4.278592 2,400 225 178 -832
2019-06-20 06:03:12 GMT 55.956161 -4.275398 2,425 225 177 -832
2019-06-20 06:03:09 GMT 55.957718 -4.272600 2,450 225 177 -832
2019-06-20 06:03:05 GMT 55.960281 -4.268105 2,550 225 176 -960
2019-06-20 06:03:01 GMT 55.962387 -4.264443 2,625 226 174 -960
2019-06-20 06:02:58 GMT 55.964355 -4.260807 2,675 225 173 -896
2019-06-20 06:02:54 GMT 55.966599 -4.256869 2,725 226 173 -960
2019-06-20 06:02:50 GMT 55.968796 -4.252874 2,800 226 171 -832
2019-06-20 06:02:47 GMT 55.970173 -4.250336 2,800 226 171 -896
2019-06-20 06:02:43 GMT 55.972363 -4.246302 2,875 228 170 -832
2019-06-20 06:02:39 GMT 55.974319 -4.242525 2,950 229 169 -960
2019-06-20 06:02:36 GMT 55.975937 -4.239308 3,000 230 168 -832
2019-06-20 06:02:33 GMT 55.977669 -4.235573 3,050 232 168 -960
2019-06-20 06:02:30 GMT 55.979160 -4.232311 3,125 232 167 -960
2019-06-20 06:02:27 GMT 55.980602 -4.229136 3,125 232 168 -896
2019-06-20 06:02:23 GMT 55.982510 -4.224758 3,250 233 167 -832
2019-06-20 06:02:20 GMT 55.984188 -4.220810 3,250 233 167 -704
2019-06-20 06:02:16 GMT 55.987427 -4.213340 3,300 232 166 -512
2019-06-20 06:02:13 GMT 55.987427 -4.213340 3,325 232 166 -512
2019-06-20 06:02:09 GMT 55.989075 -4.209566 3,375 232 166 -448
2019-06-20 06:02:06 GMT 55.990677 -4.206016 3,400 232 166 -384
2019-06-20 06:02:03 GMT 55.992241 -4.202442 3,425 233 166 -448
2019-06-20 06:02:00 GMT 55.993698 -4.199108 3,450 234 166 -448
2019-06-20 06:01:57 GMT 55.994614 -4.196861 3,450 235 166 -512
2019-06-20 06:01:53 GMT 55.996338 -4.192486 3,500 237 163 -448
2019-06-20 06:01:50 GMT 55.998001 -4.188121 3,550 237 163 -384
2019-06-20 06:01:47 GMT 55.998943 -4.185534 3,550 238 162 -384
2019-06-20 06:01:44 GMT 56.000198 -4.182046 3,575 238 161 -384
2019-06-20 06:01:40 GMT 56.001663 -4.177967 3,600 240 161 -320
2019-06-20 06:01:37 GMT 56.002899 -4.174056 3,625 247 159 -768
2019-06-20 06:01:34 GMT 56.003784 -4.170256 3,650 260 160 -640
2019-06-20 06:01:31 GMT 56.004250 -4.166651 3,675 265 160 -448
2019-06-20 06:01:28 GMT 56.004501 -4.157326 3,700 269 160 128
2019-06-20 06:01:24 GMT 56.004501 -4.157326 3,675 269 160 64
2019-06-20 06:01:20 GMT 56.004593 -4.151750 3,675 270 161 64
2019-06-20 06:01:16 GMT 56.004593 -4.146423 3,675 274 161 -64
2019-06-20 06:01:13 GMT 56.004547 -4.143510 3,675 277 162 -128
2019-06-20 06:01:10 GMT 56.004227 -4.138267 3,675 287 164 -128
2019-06-20 06:01:07 GMT 56.003769 -4.135104 3,675 290 165 -64
2019-06-20 06:01:04 GMT 56.002762 -4.130859 3,700 305 169 -64
2019-06-20 06:01:01 GMT 55.999695 -4.123868 3,700 316 173 0
2019-06-20 06:00:58 GMT 55.999695 -4.123868 3,700 321 176 0
2019-06-20 06:00:53 GMT 55.996719 -4.119790 3,700 333 179 0
2019-06-20 06:00:50 GMT 55.994801 -4.117813 3,700 334 179 -64
2019-06-20 06:00:47 GMT 55.992691 -4.115878 3,700 334 179 -64
2019-06-20 06:00:43 GMT 55.989632 -4.113178 3,700 334 179 -64
2019-06-20 06:00:40 GMT 55.987122 -4.110947 3,700 334 179 -256
2019-06-20 06:00:37 GMT 55.985165 -4.109230 3,725 335 180 -256
2019-06-20 06:00:33 GMT 55.982044 -4.106483 3,750 334 180 -384
2019-06-20 06:00:29 GMT 55.979065 -4.103823 3,775 334 180 -512
2019-06-20 06:00:25 GMT 55.974133 -4.099531 3,825 334 180 -704
2019-06-20 06:00:18 GMT 55.970901 -4.096652 3,875 334 180 -640
2019-06-20 06:00:15 GMT 55.968266 -4.094381 3,925 334 182 -320
2019-06-20 06:00:10 GMT 55.964169 -4.090691 3,950 334 185 -64
2019-06-20 06:00:06 GMT 55.961750 -4.088545 3,950 334 187 0
2019-06-20 06:00:02 GMT 55.959045 -4.086165 3,950 334 189 0
2019-06-20 05:59:59 GMT 55.956303 -4.083652 3,950 334 191 0
2019-06-20 05:59:56 GMT 55.953789 -4.081421 3,950 334 191 0
2019-06-20 05:59:52 GMT 55.950623 -4.078588 3,950 334 194 0
2019-06-20 05:59:48 GMT 55.947189 -4.075428 3,950 333 195 0
2019-06-20 05:59:45 GMT 55.942795 -4.071433 3,950 333 199 -256
2019-06-20 05:59:42 GMT 55.942795 -4.071433 3,975 333 199 -256
2019-06-20 05:59:38 GMT 55.939362 -4.068271 4,025 333 205 0
2019-06-20 05:59:34 GMT 55.936050 -4.065285 4,025 333 201 -64
2019-06-20 05:59:31 GMT 55.934143 -4.063482 4,025 333 203 64
2019-06-20 05:59:28 GMT 55.930893 -4.060530 4,025 333 206 -64
2019-06-20 05:59:25 GMT 55.928741 -4.058449 4,025 333 207 -448
2019-06-20 05:59:21 GMT 55.925537 -4.055453 4,025 333 207 -640
2019-06-20 05:59:17 GMT 55.921783 -4.051958 4,075 333 208 -320
2019-06-20 05:59:14 GMT 55.919014 -4.049320 4,100 333 208 -320
2019-06-20 05:59:11 GMT 55.916702 -4.047130 4,125 333 209 -256
2019-06-20 05:59:08 GMT 55.913895 -4.044514 4,150 333 210 -256
2019-06-20 05:59:04 GMT 55.911144 -4.041939 4,175 333 211 -128
2019-06-20 05:59:01 GMT 55.908215 -4.039106 4,175 333 213 0
2019-06-20 05:58:57 GMT 55.904720 -4.035845 4,175 333 214 0
2019-06-20 05:58:53 GMT 55.900772 -4.032149 4,175 334 216 0
2019-06-20 05:58:50 GMT 55.898987 -4.030568 4,175 334 216 0
2019-06-20 05:58:46 GMT 55.894016 -4.026318 4,175 337 215 -256
2019-06-20 05:58:43 GMT 55.892200 -4.024944 4,200 337 215 -256
2019-06-20 05:58:40 GMT 55.889740 -4.023077 4,200 338 214 -256
2019-06-20 05:58:37 GMT 55.886810 -4.020913 4,225 338 214 -256
2019-06-20 05:58:33 GMT 55.882599 -4.017750 4,225 338 215 -384
2019-06-20 05:58:30 GMT 55.880466 -4.016190 4,250 338 216 -384
2019-06-20 05:58:27 GMT 55.877537 -4.014044 4,275 338 218 -384
2019-06-20 05:58:23 GMT 55.873901 -4.011341 4,300 338 220 -384
2019-06-20 05:58:20 GMT 55.871063 -4.009261 4,325 338 221 -576
2019-06-20 05:58:17 GMT 55.867760 -4.006748 4,350 338 223 -704
2019-06-20 05:58:13 GMT 55.864838 -4.004517 4,400 338 223 -832
2019-06-20 05:58:10 GMT 55.861588 -4.002103 4,425 337 224 -960
2019-06-20 05:58:07 GMT 55.858261 -3.999624 4,525 337 224 -1024
2019-06-20 05:58:02 GMT 55.854259 -3.996620 4,575 337 224 -960
2019-06-20 05:57:59 GMT 55.851604 -3.994560 4,625 338 224 -1024
2019-06-20 05:57:55 GMT 55.846394 -3.990784 4,750 340 226 -960
2019-06-20 05:57:52 GMT 55.844063 -3.989153 4,800 344 229 -1024
2019-06-20 05:57:49 GMT 55.841171 -3.987455 4,825 346 229 -1024
2019-06-20 05:57:46 GMT 55.838333 -3.986289 4,875 351 231 -1088
2019-06-20 05:57:42 GMT 55.834534 -3.985207 4,950 354 231 -1024
2019-06-20 05:57:39 GMT 55.830917 -3.984541 5,000 355 231 -1024
2019-06-20 05:57:35 GMT 55.826660 -3.983792 5,100 355 231 -1024
2019-06-20 05:57:32 GMT 55.823814 -3.983231 5,125 355 231 -1024
2019-06-20 05:57:29 GMT 55.820068 -3.982627 5,200 355 231 -1088
2019-06-20 05:57:26 GMT 55.816784 -3.981943 5,250 355 231 -1152
2019-06-20 05:57:22 GMT 55.813202 -3.981342 5,300 355 231 -1216
2019-06-20 05:57:19 GMT 55.809383 -3.980570 5,400 354 230 -1152
2019-06-20 05:57:14 GMT 55.804184 -3.979631 5,500 355 231 -832
2019-06-20 05:57:11 GMT 55.800678 -3.978939 5,550 355 232 -896
2019-06-20 05:57:08 GMT 55.798645 -3.978549 5,575 355 232 -896
2019-06-20 05:57:05 GMT 55.794487 -3.977823 5,625 355 232 -960
2019-06-20 05:57:02 GMT 55.791412 -3.977300 5,675 355 232 -896
2019-06-20 05:56:58 GMT 55.787224 -3.976536 5,750 354 232 -576
2019-06-20 05:56:55 GMT 55.784058 -3.975849 5,775 351 232 -576
2019-06-20 05:56:51 GMT 55.780430 -3.974819 5,800 332 234 -384
2019-06-20 05:56:48 GMT 55.775345 -3.972473 5,875 339 229 -704
2019-06-20 05:56:45 GMT 55.773331 -3.971058 5,875 336 230 -576
2019-06-20 05:56:42 GMT 55.770447 -3.968728 5,900 333 231 -512
2019-06-20 05:56:37 GMT 55.765205 -3.963919 5,975 333 233 -832
2019-06-20 05:56:34 GMT 55.763668 -3.962460 5,975 332 233 -896
2019-06-20 05:56:31 GMT 55.760410 -3.959370 6,025 332 233 -832
2019-06-20 05:56:28 GMT 55.757492 -3.956659 6,075 332 233 -768
2019-06-20 05:56:25 GMT 55.754498 -3.953791 6,125 332 235 -320
2019-06-20 05:56:22 GMT 55.751427 -3.950958 6,125 332 237 -320
2019-06-20 05:56:19 GMT 55.748657 -3.948253 6,150 332 238 -576
2019-06-20 05:56:15 GMT 55.744118 -3.943834 6,200 331 239 -832
2019-06-20 05:56:10 GMT 55.740253 -3.939972 6,250 328 238 -1024
2019-06-20 05:56:07 GMT 55.737305 -3.936851 6,325 327 237 -1024
2019-06-20 05:56:03 GMT 55.733597 -3.932247 6,400 322 238 -896
2019-06-20 05:56:00 GMT 55.731503 -3.929415 6,450 322 239 -896
2019-06-20 05:55:57 GMT 55.728382 -3.925037 6,450 322 239 -896
2019-06-20 05:55:54 GMT 55.725677 -3.921204 6,575 322 241 -960
2019-06-20 05:55:50 GMT 55.722145 -3.916111 6,575 322 241 -960
2019-06-20 05:55:47 GMT 55.719269 -3.912048 6,650 322 242 -832
2019-06-20 05:55:44 GMT 55.716232 -3.907700 6,700 322 242 -896
2019-06-20 05:55:40 GMT 55.713440 -3.903751 6,750 322 243 -832
2019-06-20 05:55:37 GMT 55.707550 -3.895319 6,800 322 243 -832
2019-06-20 05:55:33 GMT 55.707550 -3.895319 6,825 322 244 -896
2019-06-20 05:55:30 GMT 55.704128 -3.890448 6,875 322 244 -896
2019-06-20 05:55:26 GMT 55.701290 -3.886414 6,950 322 246 -896
2019-06-20 05:55:23 GMT 55.699379 -3.883667 7,000 322 246 -896
2019-06-20 05:55:20 GMT 55.696728 -3.879890 7,025 321 247 -896
2019-06-20 05:55:17 GMT 55.693142 -3.874741 7,125 321 248 -896
2019-06-20 05:55:14 GMT 55.690063 -3.870267 7,150 321 248 -896
2019-06-20 05:55:09 GMT 55.686127 -3.864607 7,225 321 249 -960
2019-06-20 05:55:05 GMT 55.679947 -3.855452 7,325 321 249 -896
2019-06-20 05:55:02 GMT 55.679947 -3.855452 7,350 319 248 -896
2019-06-20 05:54:59 GMT 55.677219 -3.851395 7,400 319 247 -896
2019-06-20 05:54:55 GMT 55.674179 -3.846713 7,450 316 246 -832
2019-06-20 05:54:51 GMT 55.670795 -3.840494 7,475 313 244 -768
2019-06-20 05:54:47 GMT 55.667957 -3.833714 7,575 299 240 -896
2019-06-20 05:54:44 GMT 55.666534 -3.829401 7,625 295 240 -960
2019-06-20 05:54:41 GMT 55.664932 -3.823325 7,675 288 238 -960
2019-06-20 05:54:38 GMT 55.663788 -3.816917 7,725 281 237 -960
2019-06-20 05:54:35 GMT 55.663116 -3.811054 7,750 279 236 -896
2019-06-20 05:54:31 GMT 55.662781 -3.803101 7,850 268 234 -832
2019-06-20 05:54:28 GMT 55.662884 -3.798695 7,875 264 233 -768
2019-06-20 05:54:25 GMT 55.663208 -3.793802 7,925 260 232 -640
2019-06-20 05:54:22 GMT 55.664017 -3.787703 7,975 252 231 -256
2019-06-20 05:54:19 GMT 55.665207 -3.781627 7,975 246 231 64
2019-06-20 05:54:16 GMT 55.666748 -3.776035 8,000 238 232 0
2019-06-20 05:54:12 GMT 55.668686 -3.770807 7,975 232 233 0
2019-06-20 05:54:08 GMT 55.671707 -3.764399 7,975 224 234 128
2019-06-20 05:54:05 GMT 55.673584 -3.761236 7,975 217 236 128
2019-06-20 05:54:01 GMT 55.676605 -3.756825 8,000 213 237 128
2019-06-20 05:53:58 GMT 55.680573 -3.752518 8,000 206 238 192
2019-06-20 05:53:55 GMT 55.682877 -3.750499 8,000 199 239 128
2019-06-20 05:53:51 GMT 55.686584 -3.748002 8,000 196 241 128
2019-06-20 05:53:48 GMT 55.690350 -3.746252 7,975 191 243 192
2019-06-20 05:53:45 GMT 55.699219 -3.744840 7,975 182 245 256
2019-06-20 05:53:41 GMT 55.699219 -3.744840 7,975 175 246 256
2019-06-20 05:53:38 GMT 55.701920 -3.745256 7,975 167 249 128
2019-06-20 05:53:34 GMT 55.706268 -3.746671 7,975 163 251 128
2019-06-20 05:53:31 GMT 55.709248 -3.748398 7,975 156 255 -128
2019-06-20 05:53:28 GMT 55.716476 -3.755243 8,000 145 259 -128
2019-06-20 05:53:25 GMT 55.716476 -3.755243 8,000 140 261 -128
2019-06-20 05:53:22 GMT 55.719315 -3.759322 8,000 132 264 0
2019-06-20 05:53:19 GMT 55.721054 -3.762401 8,000 126 267 0
2019-06-20 05:53:16 GMT 55.723572 -3.767811 8,000 126 267 0
2019-06-20 05:53:13 GMT 55.725731 -3.773375 8,000 121 269 0
2019-06-20 05:53:09 GMT 55.728336 -3.781013 7,975 119 269 -384
2019-06-20 05:53:06 GMT 55.730198 -3.786764 7,975 119 269 -384
2019-06-20 05:53:03 GMT 55.732059 -3.792515 7,975 119 271 64
2019-06-20 05:53:00 GMT 55.734238 -3.799189 7,975 119 270 0
2019-06-20 05:52:57 GMT 55.735977 -3.804599 7,975 119 270 -384
2019-06-20 05:52:54 GMT 55.739960 -3.816917 8,000 119 268 -384
2019-06-20 05:52:50 GMT 55.739960 -3.816917 8,025 119 268 -384
2019-06-20 05:52:47 GMT 55.744125 -3.829817 8,075 120 264 -576
2019-06-20 05:52:41 GMT 55.745651 -3.834486 8,075 120 263 -640
2019-06-20 05:52:38 GMT 55.747421 -3.839888 8,125 120 262 -640
2019-06-20 05:52:35 GMT 55.751266 -3.851374 8,175 120 261 -576
2019-06-20 05:52:32 GMT 55.751266 -3.851374 8,200 121 260 -384
2019-06-20 05:52:29 GMT 55.753056 -3.856716 8,225 121 260 -192
2019-06-20 05:52:26 GMT 55.755524 -3.863775 8,225 122 259 -192
2019-06-20 05:52:23 GMT 55.756733 -3.867188 8,250 121 260 -256
2019-06-20 05:52:19 GMT 55.761482 -3.882036 8,275 115 260 -320
2019-06-20 05:52:15 GMT 55.761482 -3.882036 8,300 110 261 -256
2019-06-20 05:52:12 GMT 55.764366 -3.898945 8,325 100 264 -192
2019-06-20 05:52:09 GMT 55.764366 -3.898945 8,325 91 266 -128
2019-06-20 05:52:05 GMT 55.764633 -3.903476 8,325 87 267 -128
2019-06-20 05:52:02 GMT 55.764679 -3.911383 8,350 81 268 -192
2019-06-20 05:51:58 GMT 55.764133 -3.919029 8,350 79 268 -192
2019-06-20 05:51:55 GMT 55.763248 -3.925467 8,375 70 269 -192
2019-06-20 05:51:51 GMT 55.761387 -3.934135 8,375 60 270 -128
2019-06-20 05:51:48 GMT 55.759415 -3.940513 8,400 52 270 -64
2019-06-20 05:51:45 GMT 55.757618 -3.945036 8,400 46 269 -64
2019-06-20 05:51:42 GMT 55.755432 -3.949585 8,400 38 269 -64
2019-06-20 05:51:39 GMT 55.752495 -3.954649 8,400 36 268 0
2019-06-20 05:51:36 GMT 55.750168 -3.957825 8,425 34 267 0
2019-06-20 05:51:33 GMT 55.746632 -3.961773 8,425 24 264 -64
2019-06-20 05:51:30 GMT 55.744022 -3.964090 8,425 20 263 -64
2019-06-20 05:51:27 GMT 55.739880 -3.966751 8,450 10 260 -64
2019-06-20 05:51:24 GMT 55.736984 -3.968062 8,450 305 240 0
2019-06-20 05:51:21 GMT 55.732338 -3.969240 8,450 0 258 -64
2019-06-20 05:51:18 GMT 55.728802 -3.969326 8,475 354 254 -128
2019-06-20 05:51:14 GMT 55.724670 -3.968645 8,475 350 253 -128
2019-06-20 05:51:10 GMT 55.719635 -3.966647 8,500 340 250 -128
2019-06-20 05:51:07 GMT 55.716385 -3.964566 8,500 338 249 -128
2019-06-20 05:51:04 GMT 55.713501 -3.962069 8,525 332 247 -128
2019-06-20 05:51:00 GMT 55.710022 -3.958158 8,550 322 244 -128
2019-06-20 05:50:57 GMT 55.706818 -3.953663 8,550 316 242 -64
2019-06-20 05:50:54 GMT 55.704872 -3.950100 8,550 307 241 0
2019-06-20 05:50:51 GMT 55.702591 -3.945208 8,550 303 241 -64
2019-06-20 05:50:47 GMT 55.700409 -3.939431 8,575 302 240 -128
2019-06-20 05:50:44 GMT 55.698212 -3.933022 8,575 301 241 -64
2019-06-20 05:50:39 GMT 55.693981 -3.920231 8,575 301 241 -64
2019-06-20 05:50:33 GMT 55.692490 -3.915854 8,575 301 242 -64
2019-06-20 05:50:29 GMT 55.690109 -3.908469 8,600 301 241 -64
2019-06-20 05:50:26 GMT 55.688187 -3.902727 8,600 301 241 -64
2019-06-20 05:50:23 GMT 55.686672 -3.898087 8,600 300 242 -64
2019-06-20 05:50:20 GMT 55.684845 -3.892406 8,625 300 242 -64
2019-06-20 05:50:17 GMT 55.683365 -3.887787 8,625 300 242 -128
2019-06-20 05:50:14 GMT 55.681553 -3.882294 8,625 300 242 -64
2019-06-20 05:50:11 GMT 55.679642 -3.876457 8,625 301 242 -64
2019-06-20 05:50:08 GMT 55.678024 -3.871515 8,625 301 242 -128
2019-06-20 05:50:05 GMT 55.676239 -3.866022 8,650 301 242 -128
2019-06-20 05:50:02 GMT 55.675095 -3.862527 8,650 301 242 -128
2019-06-20 05:49:59 GMT 55.672798 -3.855515 8,650 301 243 -192
2019-06-20 05:49:56 GMT 55.671310 -3.851051 8,675 301 243 -192
2019-06-20 05:49:52 GMT 55.669262 -3.844872 8,675 301 243 -192
2019-06-20 05:49:49 GMT 55.667400 -3.839464 8,700 299 242 -128
2019-06-20 05:49:46 GMT 55.665768 -3.834229 8,700 297 241 -128
2019-06-20 05:49:43 GMT 55.664047 -3.827791 8,725 291 239 -192
2019-06-20 05:49:38 GMT 55.662510 -3.820410 8,725 287 238 -128
2019-06-20 05:49:35 GMT 55.661579 -3.814402 8,750 279 238 -128
2019-06-20 05:49:32 GMT 55.660881 -3.808222 8,750 277 238 -128
2019-06-20 05:49:29 GMT 55.660416 -3.801270 8,775 267 237 -64
2019-06-20 05:49:25 GMT 55.660400 -3.788619 8,775 265 237 -64
2019-06-20 05:49:22 GMT 55.660400 -3.788619 8,775 263 236 -128
2019-06-20 05:49:18 GMT 55.660881 -3.781185 8,775 260 237 -128
2019-06-20 05:49:15 GMT 55.661728 -3.774137 8,800 253 237 -128
2019-06-20 05:49:12 GMT 55.662464 -3.769426 8,800 250 237 -192
2019-06-20 05:49:07 GMT 55.664417 -3.760414 8,825 244 237 -256
2019-06-20 05:49:04 GMT 55.665539 -3.756208 8,825 239 238 -384
2019-06-20 05:49:01 GMT 55.667027 -3.751488 8,850 237 238 -448
2019-06-20 05:48:57 GMT 55.670052 -3.743763 8,875 230 239 -512
2019-06-20 05:48:54 GMT 55.672009 -3.739557 8,900 227 240 -512
2019-06-20 05:48:51 GMT 55.674290 -3.735266 8,925 222 241 -576
2019-06-20 05:48:47 GMT 55.680668 -3.726082 9,000 214 243 -512
2019-06-20 05:48:44 GMT 55.680668 -3.726082 9,025 211 244 -512
2019-06-20 05:48:41 GMT 55.682945 -3.723507 9,025 211 244 -512
2019-06-20 05:48:38 GMT 55.685928 -3.720589 9,050 205 245 -512
2019-06-20 05:48:35 GMT 55.690022 -3.717327 9,075 201 247 -512
2019-06-20 05:48:31 GMT 55.693466 -3.715181 9,125 195 248 -448
2019-06-20 05:48:27 GMT 55.697426 -3.713293 9,150 190 249 -448
2019-06-20 05:48:24 GMT 55.700684 -3.712130 9,200 186 250 -512
2019-06-20 05:48:20 GMT 55.705383 -3.711319 9,225 182 252 -512
2019-06-20 05:48:17 GMT 55.709343 -3.711233 9,225 175 253 -576
2019-06-20 05:48:14 GMT 55.712833 -3.711662 9,300 170 255 -576
2019-06-20 05:48:10 GMT 55.716789 -3.712692 9,300 165 257 -512
2019-06-20 05:48:07 GMT 55.721169 -3.714581 9,325 161 259 -448
2019-06-20 05:48:04 GMT 55.724899 -3.716791 9,350 158 259 -384
2019-06-20 05:48:00 GMT 55.728653 -3.719704 9,375 152 261 -448
2019-06-20 05:47:56 GMT 55.732498 -3.723366 9,400 120 275 -320
2019-06-20 05:47:53 GMT 55.736435 -3.728142 9,425 141 265 -512
2019-06-20 05:47:50 GMT 55.738815 -3.731689 9,450 136 267 -448
2019-06-20 05:47:45 GMT 55.743046 -3.739386 9,475 129 270 -384
2019-06-20 05:47:42 GMT 55.747330 -3.749943 9,525 120 274 -320
2019-06-20 05:47:36 GMT 55.749527 -3.756242 9,550 120 275 -320
2019-06-20 05:47:33 GMT 55.751587 -3.762484 9,575 120 275 -448
2019-06-20 05:47:30 GMT 55.753567 -3.768568 9,575 120 275 -384
2019-06-20 05:47:27 GMT 55.755798 -3.775385 9,625 120 275 -448
2019-06-20 05:47:24 GMT 55.757011 -3.779039 9,650 120 275 -384
2019-06-20 05:47:21 GMT 55.759060 -3.785305 9,650 120 275 -384
2019-06-20 05:47:18 GMT 55.760651 -3.790200 9,675 120 275 -384
2019-06-20 05:47:15 GMT 55.762646 -3.796291 9,700 120 275 -384
2019-06-20 05:47:12 GMT 55.765228 -3.804266 9,750 119 274 -384
2019-06-20 05:47:09 GMT 55.766834 -3.809166 9,750 119 274 -384
2019-06-20 05:47:05 GMT 55.768890 -3.815585 9,775 119 274 -384
2019-06-20 05:47:02 GMT 55.771118 -3.822384 9,800 119 274 -448
2019-06-20 05:46:59 GMT 55.773121 -3.828650 9,825 120 273 -448
2019-06-20 05:46:55 GMT 55.775539 -3.836031 9,850 120 273 -448
2019-06-20 05:46:51 GMT 55.778366 -3.844715 9,875 120 273 -448
2019-06-20 05:46:48 GMT 55.781799 -3.855202 9,925 120 272 -384
2019-06-20 05:46:45 GMT 55.781799 -3.855202 9,925 120 272 -384
2019-06-20 05:46:42 GMT 55.783733 -3.861179 9,950 120 272 -384
2019-06-20 05:46:39 GMT 55.786293 -3.868818 9,975 121 271 -384
2019-06-20 05:46:36 GMT 55.787876 -3.873453 10,025 121 270 -512
2019-06-20 05:46:33 GMT 55.790543 -3.881170 10,050 119 270 -512
2019-06-20 05:46:30 GMT 55.791183 -3.883084 10,050 117 270 -512
2019-06-20 05:46:27 GMT 55.793041 -3.889074 10,075 114 270 -512
2019-06-20 05:46:24 GMT 55.794708 -3.895319 10,125 108 272 -512
2019-06-20 05:46:21 GMT 55.796394 -3.903580 10,150 100 273 -448
2019-06-20 05:46:18 GMT 55.797180 -3.908969 10,150 99 274 -448
2019-06-20 05:46:15 GMT 55.797886 -3.915424 10,175 96 274 -448
2019-06-20 05:46:12 GMT 55.798279 -3.922369 10,200 92 275 -448
2019-06-20 05:46:09 GMT 55.798370 -3.928278 10,225 86 275 -384
2019-06-20 05:46:06 GMT 55.798073 -3.937054 10,250 80 275 -448
2019-06-20 05:46:03 GMT 55.797546 -3.942677 10,275 78 276 -448
2019-06-20 05:46:00 GMT 55.796585 -3.950168 10,300 71 276 -448
2019-06-20 05:45:57 GMT 55.795555 -3.956022 10,325 68 275 -448
2019-06-20 05:45:54 GMT 55.793930 -3.962902 10,350 62 276 -384
2019-06-20 05:45:48 GMT 55.790771 -3.973139 10,400 53 274 -384
2019-06-20 05:45:45 GMT 55.788200 -3.979540 10,425 50 274 -384
2019-06-20 05:45:42 GMT 55.785034 -3.985977 10,450 43 273 -320
2019-06-20 05:45:38 GMT 55.781250 -3.992115 10,475 37 270 -384
2019-06-20 05:45:35 GMT 55.778687 -3.995694 10,500 31 269 -384
2019-06-20 05:45:32 GMT 55.775726 -3.999195 10,550 22 266 -448
2019-06-20 05:45:26 GMT 55.769669 -4.004683 10,575 18 265 -448
2019-06-20 05:45:23 GMT 55.766369 -4.006920 10,600 16 264 -448
2019-06-20 05:45:20 GMT 55.762253 -4.009011 10,625 13 263 -384
2019-06-20 05:45:17 GMT 55.758549 -4.010353 10,675 6 261 -320
2019-06-20 05:45:14 GMT 55.755341 -4.011009 10,675 1 260 -384
2019-06-20 05:45:11 GMT 55.751953 -4.011258 10,700 359 259 -384
2019-06-20 05:45:08 GMT 55.747562 -4.010954 10,750 352 256 -320
2019-06-20 05:45:05 GMT 55.743790 -4.010181 10,775 349 255 -384
2019-06-20 05:44:58 GMT 55.735783 -4.006577 10,825 338 251 -448
2019-06-20 05:44:55 GMT 55.734062 -4.005461 10,850 335 250 -448
2019-06-20 05:44:52 GMT 55.730759 -4.002935 10,875 333 248 -384
2019-06-20 05:44:49 GMT 55.726566 -3.998938 10,900 326 246 -384
2019-06-20 05:44:45 GMT 55.723911 -3.995848 10,925 324 246 -320
2019-06-20 05:44:42 GMT 55.720654 -3.991385 10,950 319 244 -320
2019-06-20 05:44:39 GMT 55.718468 -3.987865 10,975 316 243 -320
2019-06-20 05:44:35 GMT 55.715286 -3.981961 11,000 309 241 -384
2019-06-20 05:44:32 GMT 55.711212 -3.972057 11,050 301 240 -384
2019-06-20 05:44:29 GMT 55.711212 -3.972057 11,050 300 239 -384
2019-06-20 05:44:26 GMT 55.709381 -3.966564 11,075 297 239 -384
2019-06-20 05:44:23 GMT 55.707916 -3.961320 11,100 292 238 -448
2019-06-20 05:44:20 GMT 55.706505 -3.954992 11,225 278 235 -448
2019-06-20 05:44:17 GMT 55.705582 -3.950001 11,175 282 236 -448
2019-06-20 05:44:14 GMT 55.704712 -3.943592 11,200 278 235 -448
2019-06-20 05:44:11 GMT 55.704315 -3.939543 11,225 274 235 -448
2019-06-20 05:44:07 GMT 55.703850 -3.930788 11,250 270 235 -448
2019-06-20 05:44:04 GMT 55.703850 -3.924952 11,275 266 234 -448
2019-06-20 05:44:00 GMT 55.704269 -3.916197 11,325 259 234 -448
2019-06-20 05:43:56 GMT 55.704967 -3.909845 11,350 256 234 -512
2019-06-20 05:43:53 GMT 55.705811 -3.904058 11,375 254 234 -512
2019-06-20 05:43:49 GMT 55.706955 -3.897067 11,400 254 234 -512
2019-06-20 05:43:46 GMT 55.707870 -3.891491 11,425 254 235 -512
2019-06-20 05:43:43 GMT 55.708736 -3.886156 11,450 254 235 -448
2019-06-20 05:43:40 GMT 55.709473 -3.881586 11,475 254 235 -448
2019-06-20 05:43:37 GMT 55.710415 -3.875856 11,475 254 235 -448
2019-06-20 05:43:34 GMT 55.711761 -3.867702 11,525 254 235 -448
2019-06-20 05:43:31 GMT 55.712311 -3.864607 11,550 254 235 -448
2019-06-20 05:43:28 GMT 55.713299 -3.858519 11,575 254 235 -384
2019-06-20 05:43:25 GMT 55.714230 -3.852940 11,600 254 235 -384
2019-06-20 05:43:21 GMT 55.715393 -3.845901 11,625 254 235 -384
2019-06-20 05:43:18 GMT 55.716339 -3.840221 11,675 255 236 -512
2019-06-20 05:43:15 GMT 55.717255 -3.834645 11,675 255 236 -512
2019-06-20 05:43:11 GMT 55.718216 -3.828735 11,700 255 236 -512
2019-06-20 05:43:08 GMT 55.719353 -3.821440 11,750 255 235 -512
2019-06-20 05:43:05 GMT 55.720230 -3.816084 11,775 255 235 -512
2019-06-20 05:43:02 GMT 55.721237 -3.809759 11,800 255 236 -448
2019-06-20 05:42:59 GMT 55.722050 -3.804789 11,825 255 236 -448
2019-06-20 05:42:56 GMT 55.722935 -3.799210 11,850 255 236 -448
2019-06-20 05:42:53 GMT 55.723801 -3.793779 11,875 255 237 -448
2019-06-20 05:42:50 GMT 55.724899 -3.787120 11,900 255 237 -448
2019-06-20 05:42:47 GMT 55.725494 -3.783375 11,900 255 237 -448
2019-06-20 05:42:44 GMT 55.727646 -3.769975 11,975 254 237 -512
2019-06-20 05:42:40 GMT 55.727646 -3.769975 11,975 254 237 -512
2019-06-20 05:42:37 GMT 55.728523 -3.764534 12,000 254 237 -512
2019-06-20 05:42:34 GMT 55.729454 -3.758955 12,150 254 238 -448
2019-06-20 05:42:30 GMT 55.730759 -3.750916 12,075 254 237 -448
2019-06-20 05:42:27 GMT 55.731583 -3.746088 12,075 254 237 -448
2019-06-20 05:42:24 GMT 55.733784 -3.732433 12,150 254 238 -448
2019-06-20 05:42:20 GMT 55.733784 -3.732433 12,150 254 238 -448
2019-06-20 05:42:16 GMT 55.734852 -3.725653 12,175 254 238 -448
2019-06-20 05:42:12 GMT 55.736343 -3.716726 12,200 254 238 -448
2019-06-20 05:42:09 GMT 55.737305 -3.710882 12,250 254 238 -448
2019-06-20 05:42:06 GMT 55.737900 -3.707137 12,250 254 238 -448
2019-06-20 05:42:03 GMT 55.738995 -3.700590 12,275 254 238 -448
2019-06-20 05:42:00 GMT 55.740005 -3.694403 12,325 254 238 -448
2019-06-20 05:41:56 GMT 55.741241 -3.686496 12,350 255 239 -448
2019-06-20 05:41:52 GMT 55.743393 -3.672929 12,400 255 239 -448
2019-06-20 05:41:49 GMT 55.743393 -3.672929 12,400 255 239 -448
2019-06-20 05:41:46 GMT 55.743942 -3.669600 12,425 255 239 -448
2019-06-20 05:41:43 GMT 55.745132 -3.662026 12,450 255 239 -512
2019-06-20 05:41:40 GMT 55.745865 -3.657116 12,500 255 239 -448
2019-06-20 05:41:37 GMT 55.746735 -3.651456 12,500 255 239 -448
2019-06-20 05:41:34 GMT 55.747742 -3.644964 12,550 255 239 -448
2019-06-20 05:41:31 GMT 55.748493 -3.640251 12,550 255 239 -512
2019-06-20 05:41:28 GMT 55.750355 -3.628492 12,625 255 239 -448
2019-06-20 05:41:25 GMT 55.750355 -3.628492 12,600 255 239 -448
2019-06-20 05:41:22 GMT 55.751144 -3.623600 12,650 255 239 -448
2019-06-20 05:41:19 GMT 55.752357 -3.616047 12,675 255 239 -448
2019-06-20 05:41:15 GMT 55.753380 -3.609610 12,700 255 239 -448
2019-06-20 05:41:11 GMT 55.754871 -3.600168 12,725 255 239 -384
2019-06-20 05:41:08 GMT 55.755337 -3.597078 12,750 255 239 -384
2019-06-20 05:41:05 GMT 55.756165 -3.591947 12,775 255 239 -384
2019-06-20 05:41:02 GMT 55.757153 -3.585749 12,800 255 240 -384
2019-06-20 05:40:59 GMT 55.758087 -3.579878 12,825 255 240 -384
2019-06-20 05:40:56 GMT 55.759140 -3.573054 12,850 255 240 -384
2019-06-20 05:40:53 GMT 55.759918 -3.568060 12,875 255 240 -384
2019-06-20 05:40:50 GMT 55.760967 -3.561459 12,875 255 241 -384
2019-06-20 05:40:47 GMT 55.761715 -3.556910 12,900 255 241 -384
2019-06-20 05:40:44 GMT 55.762665 -3.550998 12,900 255 241 -384
2019-06-20 05:40:41 GMT 55.763489 -3.545671 12,950 255 242 -384
2019-06-20 05:40:38 GMT 55.764740 -3.537855 12,975 255 242 -448
2019-06-20 05:40:34 GMT 55.765732 -3.531605 13,000 255 242 -512
2019-06-20 05:40:31 GMT 55.766693 -3.525446 13,025 255 242 -512
2019-06-20 05:40:28 GMT 55.767952 -3.517599 13,075 255 242 -512
2019-06-20 05:40:24 GMT 55.768742 -3.512707 13,075 255 242 -448
2019-06-20 05:40:20 GMT 55.769852 -3.505637 13,125 254 242 -384
2019-06-20 05:40:16 GMT 55.771317 -3.496815 13,150 254 242 -384
2019-06-20 05:40:13 GMT 55.771912 -3.492987 13,175 255 243 -448
2019-06-20 05:40:10 GMT 55.772980 -3.486271 13,200 255 243 -448
2019-06-20 05:40:07 GMT 55.774200 -3.478837 13,225 254 243 -448
2019-06-20 05:40:04 GMT 55.774796 -3.475199 13,250 254 243 -448
2019-06-20 05:40:01 GMT 55.776051 -3.467560 13,275 254 243 -448
2019-06-20 05:39:56 GMT 55.777451 -3.458862 13,325 254 244 -448
2019-06-20 05:39:53 GMT 55.778332 -3.453741 13,350 254 244 -512
2019-06-20 05:39:50 GMT 55.779282 -3.447710 13,375 254 245 -512
2019-06-20 05:39:46 GMT 55.780708 -3.439064 13,400 254 245 -448
2019-06-20 05:39:43 GMT 55.781525 -3.433810 13,425 255 246 -448
2019-06-20 05:39:40 GMT 55.782394 -3.428400 13,450 255 246 -384
2019-06-20 05:39:35 GMT 55.784664 -3.414259 13,500 255 246 -448
2019-06-20 05:39:29 GMT 55.785828 -3.406792 13,550 255 246 -512
2019-06-20 05:39:26 GMT 55.786789 -3.400768 13,600 255 247 -512
2019-06-20 05:39:23 GMT 55.787735 -3.394690 13,575 255 247 -512
2019-06-20 05:39:20 GMT 55.788483 -3.390055 13,625 255 247 -512
2019-06-20 05:39:17 GMT 55.789398 -3.383956 13,650 255 247 -448
2019-06-20 05:39:14 GMT 55.790405 -3.377713 13,675 255 247 -448
2019-06-20 05:39:11 GMT 55.791321 -3.371601 13,700 255 247 -448
2019-06-20 05:39:08 GMT 55.792065 -3.366880 13,725 255 248 -512
2019-06-20 05:39:05 GMT 55.793228 -3.359499 13,750 255 248 -512
2019-06-20 05:39:02 GMT 55.793976 -3.354778 13,800 255 248 -512
2019-06-20 05:38:59 GMT 55.795277 -3.346539 13,800 255 248 -512
2019-06-20 05:38:56 GMT 55.796024 -3.341818 13,825 255 248 -512
2019-06-20 05:38:53 GMT 55.796677 -3.337680 13,850 255 248 -448
2019-06-20 05:38:50 GMT 55.797821 -3.330688 13,875 255 248 -448
2019-06-20 05:38:47 GMT 55.798920 -3.323614 13,900 255 248 -384
2019-06-20 05:38:44 GMT 55.799702 -3.318729 13,925 255 248 -384
2019-06-20 05:38:40 GMT 55.800934 -3.311129 13,950 255 248 -384
2019-06-20 05:38:37 GMT 55.801712 -3.306385 13,975 255 248 -384
2019-06-20 05:38:34 GMT 55.802868 -3.299160 14,000 255 248 -448
2019-06-20 05:38:31 GMT 55.805008 -3.285856 14,050 255 248 -448
2019-06-20 05:38:28 GMT 55.805008 -3.285856 14,050 255 248 -448
2019-06-20 05:38:25 GMT 55.805649 -3.281749 14,075 255 248 -448
2019-06-20 05:38:22 GMT 55.806381 -3.277005 14,100 255 249 -448
2019-06-20 05:38:19 GMT 55.807571 -3.269598 14,100 255 249 -448
2019-06-20 05:38:16 GMT 55.808640 -3.262682 14,150 255 248 -448
2019-06-20 05:38:13 GMT 55.809708 -3.255987 14,175 255 249 -448
2019-06-20 05:38:09 GMT 55.810593 -3.250065 14,200 255 249 -512
2019-06-20 05:38:05 GMT 55.811783 -3.242382 14,225 255 249 -512
2019-06-20 05:38:02 GMT 55.812653 -3.236472 14,275 255 249 -576
2019-06-20 05:37:59 GMT 55.813522 -3.230896 14,300 255 249 -576
2019-06-20 05:37:56 GMT 55.814365 -3.225174 14,325 255 249 -512
2019-06-20 05:37:53 GMT 55.815296 -3.219252 14,350 256 249 -448
2019-06-20 05:37:50 GMT 55.816360 -3.211920 14,375 256 250 -448
2019-06-20 05:37:44 GMT 55.818367 -3.198652 14,450 255 250 -448
2019-06-20 05:37:41 GMT 55.818928 -3.194704 14,425 256 250 -448
2019-06-20 05:37:38 GMT 55.819813 -3.188696 14,475 255 250 -448
2019-06-20 05:37:33 GMT 55.821671 -3.176630 14,525 255 251 -448
2019-06-20 05:37:30 GMT 55.822277 -3.172817 14,550 255 250 -576
2019-06-20 05:37:27 GMT 55.823025 -3.168097 14,550 255 250 -576
2019-06-20 05:37:22 GMT 55.824791 -3.155737 14,625 260 251 -448
2019-06-20 05:37:18 GMT 55.825470 -3.148998 14,650 265 253 -448
2019-06-20 05:37:14 GMT 55.825909 -3.140545 14,675 269 255 -448
2019-06-20 05:37:11 GMT 55.825974 -3.133184 14,700 274 256 -384
2019-06-20 05:37:07 GMT 55.825836 -3.127358 14,725 278 257 -448
2019-06-20 05:37:03 GMT 55.825119 -3.117886 14,775 285 261 -448
2019-06-20 05:37:00 GMT 55.824467 -3.112478 14,775 286 261 -448
2019-06-20 05:36:57 GMT 55.823116 -3.104239 14,800 291 264 -448
2019-06-20 05:36:54 GMT 55.821674 -3.097372 14,825 298 266 -448
2019-06-20 05:36:51 GMT 55.820137 -3.091536 14,850 300 267 -448
2019-06-20 05:36:47 GMT 55.818089 -3.085012 14,875 304 269 -448
2019-06-20 05:36:43 GMT 55.815342 -3.077717 14,900 308 271 -448
2019-06-20 05:36:40 GMT 55.813015 -3.072481 14,925 310 272 -448
2019-06-20 05:36:36 GMT 55.810043 -3.066684 14,950 318 275 -256
2019-06-20 05:36:32 GMT 55.806152 -3.060275 14,975 322 278 -64
2019-06-20 05:36:29 GMT 55.803238 -3.056259 14,975 327 280 -64
2019-06-20 05:36:26 GMT 55.799374 -3.051624 14,975 331 283 -64
2019-06-20 05:36:23 GMT 55.795742 -3.048019 14,975 334 285 -64
2019-06-20 05:36:20 GMT 55.792904 -3.045616 14,975 342 290 -128
2019-06-20 05:36:15 GMT 55.786667 -3.041410 14,975 346 292 -128
2019-06-20 05:36:12 GMT 55.782520 -3.039436 14,975 350 294 -128
2019-06-20 05:36:09 GMT 55.779308 -3.038406 14,975 354 296 -128
2019-06-20 05:36:06 GMT 55.774567 -3.037387 14,975 359 299 -128
2019-06-20 05:36:03 GMT 55.769897 -3.037137 15,000 3 301 -128
2019-06-20 05:36:00 GMT 55.765575 -3.037462 15,000 5 302 -128
2019-06-20 05:35:57 GMT 55.761993 -3.038235 15,000 15 305 -192
2019-06-20 05:35:54 GMT 55.757721 -3.039800 15,000 17 306 -192
2019-06-20 05:35:51 GMT 55.753475 -3.041925 15,000 20 306 -192
2019-06-20 05:35:45 GMT 55.746277 -3.047208 15,000 28 308 -128
2019-06-20 05:35:42 GMT 55.741417 -3.052053 15,000 48 310 -64
2019-06-20 05:35:39 GMT 55.739182 -3.054782 15,000 38 309 -128
2019-06-20 05:35:36 GMT 55.734879 -3.060774 15,000 45 310 -128
2019-06-20 05:35:33 GMT 55.728802 -3.071966 15,000 53 310 0
2019-06-20 05:35:30 GMT 55.728802 -3.071966 15,000 53 310 0
2019-06-20 05:35:27 GMT 55.726318 -3.077836 15,000 58 310 0
2019-06-20 05:35:22 GMT 55.723030 -3.087673 14,975 64 310 0
2019-06-20 05:35:19 GMT 55.721169 -3.094540 14,975 66 311 0
2019-06-20 05:35:16 GMT 55.719635 -3.100891 15,000 67 312 -64
2019-06-20 05:35:12 GMT 55.717392 -3.110213 14,975 67 312 0
2019-06-20 05:35:09 GMT 55.715286 -3.119202 14,975 67 312 0
2019-06-20 05:35:06 GMT 55.713905 -3.125095 14,975 67 312 0
2019-06-20 05:35:02 GMT 55.711761 -3.134266 14,975 67 312 -64
2019-06-20 05:34:59 GMT 55.710205 -3.140925 15,000 67 312 0
2019-06-20 05:34:56 GMT 55.708271 -3.149128 15,000 67 311 0
2019-06-20 05:34:51 GMT 55.705353 -3.161649 15,000 67 311 0
2019-06-20 05:34:45 GMT 55.702652 -3.173467 15,000 67 311 0
2019-06-20 05:34:41 GMT 55.700405 -3.183117 15,000 67 311 0
2019-06-20 05:34:38 GMT 55.698635 -3.190584 15,000 67 311 0
2019-06-20 05:34:35 GMT 55.697006 -3.197708 15,000 67 311 0
2019-06-20 05:34:31 GMT 55.694733 -3.207342 15,000 67 311 64
2019-06-20 05:34:28 GMT 55.692764 -3.215831 15,000 67 312 64
2019-06-20 05:34:25 GMT 55.691208 -3.222407 14,975 67 312 64
2019-06-20 05:34:22 GMT 55.689930 -3.227835 14,975 66 313 64
2019-06-20 05:34:19 GMT 55.688023 -3.235817 14,975 66 313 64
2019-06-20 05:34:16 GMT 55.686298 -3.242855 14,975 66 313 0
2019-06-20 05:34:13 GMT 55.684616 -3.249706 14,975 66 314 0
2019-06-20 05:34:10 GMT 55.682529 -3.257961 14,975 65 315 0
2019-06-20 05:34:07 GMT 55.681038 -3.263540 14,975 64 315 0
2019-06-20 05:34:04 GMT 55.679169 -3.270264 15,000 61 316 0
2019-06-20 05:34:00 GMT 55.676010 -3.280168 15,000 60 316 -64
2019-06-20 05:33:57 GMT 55.674057 -3.286200 15,000 59 314 -64
2019-06-20 05:33:54 GMT 55.668049 -3.304396 15,000 59 313 0
2019-06-20 05:33:49 GMT 55.668049 -3.304396 15,000 59 312 64
2019-06-20 05:33:46 GMT 55.665939 -3.310797 15,000 59 312 64
2019-06-20 05:33:43 GMT 55.663788 -3.317455 15,000 59 311 64
2019-06-20 05:33:39 GMT 55.661179 -3.325362 15,000 60 311 64
2019-06-20 05:33:36 GMT 55.659027 -3.331937 15,000 60 310 64
2019-06-20 05:33:33 GMT 55.656281 -3.340343 15,000 60 310 64
2019-06-20 05:33:30 GMT 55.654922 -3.344479 14,975 59 310 0
2019-06-20 05:33:27 GMT 55.652161 -3.353077 14,975 60 310 0
2019-06-20 05:33:24 GMT 55.649616 -3.360786 14,975 59 311 0
2019-06-20 05:33:18 GMT 55.645523 -3.373302 14,975 59 311 0
2019-06-20 05:33:15 GMT 55.643471 -3.379755 14,975 59 311 0
2019-06-20 05:33:12 GMT 55.637836 -3.396921 14,975 59 311 0
2019-06-20 05:33:07 GMT 55.637836 -3.396921 14,975 59 310 0
2019-06-20 05:33:04 GMT 55.635178 -3.405013 15,000 59 310 0
2019-06-20 05:33:01 GMT 55.633026 -3.411588 15,000 59 310 -64
2019-06-20 05:32:57 GMT 55.630875 -3.418163 15,000 59 310 -64
2019-06-20 05:32:54 GMT 55.628761 -3.424559 15,000 59 310 0
2019-06-20 05:32:51 GMT 55.626339 -3.431940 15,000 59 309 0
2019-06-20 05:32:47 GMT 55.623825 -3.439636 15,000 59 309 0
2019-06-20 05:32:44 GMT 55.621452 -3.446789 15,000 59 308 0
2019-06-20 05:32:41 GMT 55.618927 -3.454368 15,000 59 308 64
2019-06-20 05:32:38 GMT 55.616703 -3.461123 15,000 60 308 0
2019-06-20 05:32:35 GMT 55.614944 -3.466603 15,000 60 308 0
2019-06-20 05:32:32 GMT 55.612885 -3.472881 14,975 60 308 0
2019-06-20 05:32:28 GMT 55.610092 -3.481418 14,975 60 309 0
2019-06-20 05:32:25 GMT 55.607021 -3.490734 14,975 60 309 0
2019-06-20 05:32:22 GMT 55.604877 -3.497343 14,975 60 309 0
2019-06-20 05:32:17 GMT 55.601990 -3.506303 14,975 60 309 0
2019-06-20 05:32:14 GMT 55.597618 -3.519659 14,975 60 309 0
2019-06-20 05:32:11 GMT 55.597618 -3.519659 15,000 60 309 0
2019-06-20 05:32:08 GMT 55.595718 -3.525613 15,000 60 309 0
2019-06-20 05:32:05 GMT 55.591187 -3.539595 15,000 60 309 0
2019-06-20 05:32:02 GMT 55.591187 -3.539595 15,000 60 309 0
2019-06-20 05:31:56 GMT 55.587067 -3.552329 15,000 60 309 0
2019-06-20 05:31:53 GMT 55.585281 -3.557768 14,975 60 309 0
2019-06-20 05:31:50 GMT 55.583324 -3.563948 14,975 60 309 0
2019-06-20 05:31:47 GMT 55.580978 -3.571222 14,975 60 309 0
2019-06-20 05:31:44 GMT 55.578873 -3.577798 14,975 60 309 0
2019-06-20 05:31:41 GMT 55.576809 -3.584118 14,975 60 309 0
2019-06-20 05:31:38 GMT 55.574341 -3.591863 14,975 60 309 0
2019-06-20 05:31:35 GMT 55.572372 -3.597939 14,975 60 310 0
2019-06-20 05:31:32 GMT 55.570290 -3.604374 14,975 60 310 0
2019-06-20 05:31:29 GMT 55.568150 -3.610897 14,975 60 310 0
2019-06-20 05:31:26 GMT 55.566288 -3.616562 14,975 60 310 0
2019-06-20 05:31:23 GMT 55.564224 -3.622908 15,000 59 310 0
2019-06-20 05:31:20 GMT 55.561398 -3.631496 15,000 59 310 0
2019-06-20 05:31:17 GMT 55.559326 -3.637806 15,000 59 310 0
2019-06-20 05:31:14 GMT 55.557350 -3.643684 15,000 59 310 0
2019-06-20 05:31:11 GMT 55.555626 -3.648920 15,000 59 310 0
2019-06-20 05:31:08 GMT 55.552963 -3.657032 15,000 59 310 0
2019-06-20 05:31:05 GMT 55.550831 -3.663340 14,975 59 310 0
2019-06-20 05:31:02 GMT 55.548386 -3.670516 14,975 59 311 0
2019-06-20 05:30:59 GMT 55.546051 -3.677424 14,975 58 310 0
2019-06-20 05:30:53 GMT 55.542160 -3.688660 14,975 58 311 0
2019-06-20 05:30:50 GMT 55.539799 -3.695354 14,975 57 311 0
2019-06-20 05:30:47 GMT 55.536850 -3.703724 14,975 57 311 0
2019-06-20 05:30:43 GMT 55.534058 -3.711465 14,975 57 311 0
2019-06-20 05:30:40 GMT 55.532444 -3.715954 14,975 57 312 0
2019-06-20 05:30:37 GMT 55.528999 -3.725309 14,975 56 313 0
2019-06-20 05:30:34 GMT 55.527191 -3.730191 14,975 56 313 0
2019-06-20 05:30:31 GMT 55.522343 -3.743248 14,975 56 313 0
2019-06-20 05:30:24 GMT 55.518478 -3.753462 14,975 56 315 0
2019-06-20 05:30:21 GMT 55.516708 -3.758097 14,975 56 315 0
2019-06-20 05:30:18 GMT 55.514290 -3.764534 14,975 57 315 0
2019-06-20 05:30:14 GMT 55.510517 -3.774920 14,975 57 316 0
2019-06-20 05:30:11 GMT 55.508934 -3.779297 14,975 58 315 0
2019-06-20 05:30:08 GMT 55.505630 -3.788910 15,000 61 315 0
2019-06-20 05:30:04 GMT 55.503117 -3.797064 15,000 64 315 0
2019-06-20 05:30:01 GMT 55.501766 -3.801613 14,975 65 316 0
2019-06-20 05:29:57 GMT 55.499577 -3.810024 14,975 66 317 0
2019-06-20 05:29:54 GMT 55.497711 -3.817333 14,975 66 317 0
2019-06-20 05:29:51 GMT 55.495697 -3.825323 14,975 66 318 0
2019-06-20 05:29:47 GMT 55.491570 -3.841696 14,975 66 319 0
2019-06-20 05:29:44 GMT 55.491570 -3.841696 14,975 66 319 0
2019-06-20 05:29:41 GMT 55.489243 -3.850958 14,975 66 319 0
2019-06-20 05:29:37 GMT 55.487091 -3.859530 14,975 65 320 0
2019-06-20 05:29:33 GMT 55.485031 -3.867604 14,975 65 321 0
2019-06-20 05:29:30 GMT 55.483200 -3.874761 14,975 66 322 0
2019-06-20 05:29:26 GMT 55.481003 -3.883581 14,975 66 322 0
2019-06-20 05:29:23 GMT 55.478851 -3.891990 14,975 66 323 0
2019-06-20 05:29:20 GMT 55.477093 -3.898945 14,975 66 323 0
2019-06-20 05:29:17 GMT 55.474777 -3.908386 14,975 66 324 0
2019-06-20 05:29:11 GMT 55.471691 -3.920660 14,975 66 325 0
2019-06-20 05:29:08 GMT 55.469505 -3.929329 14,975 66 325 0
2019-06-20 05:29:04 GMT 55.467457 -3.937569 14,975 66 326 0
2019-06-20 05:29:00 GMT 55.462601 -3.957242 14,975 66 326 0
2019-06-20 05:28:56 GMT 55.462601 -3.957242 14,975 66 327 0
2019-06-20 05:28:52 GMT 55.460239 -3.966837 14,975 66 328 -64
2019-06-20 05:28:49 GMT 55.458481 -3.973888 14,975 66 328 0
2019-06-20 05:28:46 GMT 55.456516 -3.981943 15,000 66 329 0
2019-06-20 05:28:43 GMT 55.454700 -3.989325 15,000 66 329 0
2019-06-20 05:28:40 GMT 55.452576 -3.997941 15,000 66 330 0
2019-06-20 05:28:36 GMT 55.449814 -4.008980 14,975 66 331 0
2019-06-20 05:28:32 GMT 55.448090 -4.016169 14,975 66 331 0
2019-06-20 05:28:29 GMT 55.446487 -4.022577 14,975 66 331 0
2019-06-20 05:28:26 GMT 55.444656 -4.029985 14,975 66 333 0
2019-06-20 05:28:23 GMT 55.442505 -4.038641 14,975 66 332 0
2019-06-20 05:28:20 GMT 55.440353 -4.047331 14,975 66 333 0
2019-06-20 05:28:16 GMT 55.438454 -4.055037 14,975 66 333 0
2019-06-20 05:28:12 GMT 55.435593 -4.066638 15,000 66 333 0
2019-06-20 05:28:09 GMT 55.434082 -4.072616 15,000 66 333 0
2019-06-20 05:28:06 GMT 55.432251 -4.080128 15,000 66 334 0
2019-06-20 05:28:03 GMT 55.429749 -4.090326 15,000 66 334 0
2019-06-20 05:28:00 GMT 55.428818 -4.094023 15,000 66 334 0
2019-06-20 05:27:57 GMT 55.425247 -4.108483 15,000 66 334 64
2019-06-20 05:27:51 GMT 55.423050 -4.117450 15,000 66 334 64
2019-06-20 05:27:48 GMT 55.421219 -4.124962 14,975 66 334 64
2019-06-20 05:27:45 GMT 55.418976 -4.133929 14,975 66 334 0
2019-06-20 05:27:42 GMT 55.417282 -4.140876 14,975 66 334 0
2019-06-20 05:27:39 GMT 55.415413 -4.148671 14,975 66 334 0
2019-06-20 05:27:35 GMT 55.413528 -4.156386 15,000 66 333 0
2019-06-20 05:27:32 GMT 55.409222 -4.174056 15,000 66 333 0
2019-06-20 05:27:29 GMT 55.409222 -4.174056 15,000 66 333 0
2019-06-20 05:27:25 GMT 55.406940 -4.183544 15,000 67 333 0
2019-06-20 05:27:21 GMT 55.404984 -4.191451 15,000 67 333 0
2019-06-20 05:27:18 GMT 55.403076 -4.199441 15,000 67 333 0
2019-06-20 05:27:14 GMT 55.400284 -4.210926 15,000 67 334 0
2019-06-20 05:27:11 GMT 55.398193 -4.219639 15,000 67 333 0
2019-06-20 05:27:08 GMT 55.397003 -4.224647 15,000 67 333 0
2019-06-20 05:27:04 GMT 55.394230 -4.236395 14,975 67 333 0
2019-06-20 05:27:01 GMT 55.392746 -4.242661 14,975 67 334 0
2019-06-20 05:26:57 GMT 55.390594 -4.251628 14,975 67 334 0
2019-06-20 05:26:54 GMT 55.386875 -4.267439 14,975 67 334 0
2019-06-20 05:26:48 GMT 55.384918 -4.275701 15,000 67 334 -64
2019-06-20 05:26:44 GMT 55.382359 -4.286499 15,000 67 334 0
2019-06-20 05:26:41 GMT 55.380589 -4.293990 15,000 67 334 0
2019-06-20 05:26:37 GMT 55.375809 -4.314234 15,000 67 334 0
2019-06-20 05:26:33 GMT 55.375809 -4.314234 15,000 67 334 0
2019-06-20 05:26:30 GMT 55.374493 -4.320041 15,000 67 334 0
2019-06-20 05:26:27 GMT 55.372559 -4.328290 15,000 67 334 0
2019-06-20 05:26:23 GMT 55.370487 -4.337019 15,000 67 334 0
2019-06-20 05:26:20 GMT 55.368721 -4.344593 15,000 67 334 0
2019-06-20 05:26:16 GMT 55.366333 -4.354867 15,000 67 334 0
2019-06-20 05:26:13 GMT 55.364365 -4.363349 15,000 67 334 0
2019-06-20 05:26:10 GMT 55.360748 -4.378940 15,000 67 335 0
2019-06-20 05:26:07 GMT 55.360748 -4.378940 15,000 67 334 0
2019-06-20 05:26:04 GMT 55.359642 -4.383711 15,000 67 334 0
2019-06-20 05:26:01 GMT 55.357872 -4.391285 15,000 67 334 0
2019-06-20 05:25:58 GMT 55.355713 -4.400509 15,000 67 334 0
2019-06-20 05:25:55 GMT 55.354294 -4.406568 15,000 67 334 0
2019-06-20 05:25:52 GMT 55.352287 -4.415339 15,000 67 335 0
2019-06-20 05:25:49 GMT 55.350815 -4.421674 14,975 67 335 0
2019-06-20 05:25:46 GMT 55.348797 -4.430487 14,975 67 335 0
2019-06-20 05:25:43 GMT 55.347107 -4.437750 14,975 67 335 0
2019-06-20 05:25:39 GMT 55.344700 -4.448131 14,975 67 335 0
2019-06-20 05:25:36 GMT 55.341068 -4.463778 14,975 67 336 64
2019-06-20 05:25:33 GMT 55.341068 -4.463778 14,975 67 336 0
2019-06-20 05:25:30 GMT 55.338638 -4.474101 14,975 66 336 0
2019-06-20 05:25:27 GMT 55.335709 -4.485572 14,975 63 337 0
2019-06-20 05:25:24 GMT 55.333107 -4.494573 15,000 58 337 64
2019-06-20 05:25:20 GMT 55.333107 -4.494573 15,000 58 337 64
2019-06-20 05:25:17 GMT 55.330685 -4.501481 15,000 53 336 128
2019-06-20 05:25:14 GMT 55.328125 -4.507640 14,975 47 335 128
2019-06-20 05:25:11 GMT 55.319794 -4.522872 15,000 26 329 64
2019-06-20 05:25:08 GMT 55.319794 -4.522872 14,975 37 333 64
2019-06-20 05:25:05 GMT 55.317490 -4.526044 15,000 33 332 64
2019-06-20 05:25:01 GMT 55.312683 -4.531780 15,000 26 329 64
2019-06-20 05:24:58 GMT 55.309364 -4.535023 15,000 21 327 64
2019-06-20 05:24:55 GMT 55.303711 -4.539535 15,000 18 326 64
2019-06-20 05:24:52 GMT 55.300148 -4.541681 15,000 15 324 64
2019-06-20 05:24:49 GMT 55.295818 -4.543679 15,000 12 323 128
2019-06-20 05:24:46 GMT 55.291260 -4.545109 15,000 3 319 64
2019-06-20 05:24:43 GMT 55.285675 -4.546078 15,000 3 319 64
2019-06-20 05:24:39 GMT 55.281387 -4.546509 14,975 2 319 0
2019-06-20 05:24:36 GMT 55.276081 -4.546758 14,975 1 319 64
2019-06-20 05:24:33 GMT 55.272125 -4.546967 14,975 0 319 128
2019-06-20 05:24:30 GMT 55.268600 -4.546967 14,975 326 302 192
2019-06-20 05:24:27 GMT 55.262020 -4.546259 14,975 351 313 256
2019-06-20 05:24:23 GMT 55.257973 -4.545177 14,975 348 311 256
2019-06-20 05:24:20 GMT 55.252106 -4.542514 14,975 339 308 256
2019-06-20 05:24:17 GMT 55.249283 -4.540746 14,975 331 304 192
2019-06-20 05:24:14 GMT 55.245895 -4.538242 14,975 333 305 256
2019-06-20 05:24:11 GMT 55.241638 -4.534203 14,975 329 303 192
2019-06-20 05:24:08 GMT 55.237473 -4.529275 14,975 316 297 128
2019-06-20 05:24:04 GMT 55.234184 -4.524370 14,975 316 297 128
2019-06-20 05:24:01 GMT 55.230789 -4.518370 14,975 310 295 128
2019-06-20 05:23:58 GMT 55.228458 -4.513383 15,000 300 291 64
2019-06-20 05:23:55 GMT 55.226074 -4.507222 14,975 298 291 0
2019-06-20 05:23:52 GMT 55.224548 -4.502480 15,000 293 289 0
2019-06-20 05:23:48 GMT 55.220993 -4.486057 15,000 282 287 0
2019-06-20 05:23:42 GMT 55.220215 -4.479191 15,000 278 286 0
2019-06-20 05:23:39 GMT 55.219753 -4.470187 15,000 273 286 0
2019-06-20 05:23:36 GMT 55.219753 -4.465609 15,000 266 286 0
2019-06-20 05:23:33 GMT 55.220123 -4.458430 15,000 257 285 -64
2019-06-20 05:23:30 GMT 55.220673 -4.452533 15,000 253 286 -64
2019-06-20 05:23:27 GMT 55.221848 -4.445218 14,975 249 286 -128
2019-06-20 05:23:24 GMT 55.223385 -4.438310 14,975 242 287 -64
2019-06-20 05:23:20 GMT 55.225990 -4.429737 15,000 230 289 -128
2019-06-20 05:23:16 GMT 55.229389 -4.421498 15,000 228 290 -128
2019-06-20 05:23:13 GMT 55.234360 -4.412626 15,000 221 292 -64
2019-06-20 05:23:10 GMT 55.234360 -4.412626 15,000 218 294 -64
2019-06-20 05:23:07 GMT 55.237976 -4.407618 15,000 214 294 0
2019-06-20 05:23:04 GMT 55.243729 -4.400940 14,975 212 295 0
2019-06-20 05:22:57 GMT 55.248848 -4.395364 14,975 212 295 0
2019-06-20 05:22:54 GMT 55.252213 -4.391704 14,975 212 295 0
2019-06-20 05:22:51 GMT 55.258808 -4.384544 14,975 212 295 0
2019-06-20 05:22:48 GMT 55.262375 -4.380637 14,975 212 295 0
2019-06-20 05:22:45 GMT 55.262375 -4.380637 14,975 212 296 0
2019-06-20 05:22:42 GMT 55.267273 -4.375305 14,975 212 296 0
2019-06-20 05:22:39 GMT 55.270168 -4.372142 14,975 212 296 0
2019-06-20 05:22:36 GMT 55.273891 -4.368064 15,000 212 296 0
2019-06-20 05:22:33 GMT 55.277481 -4.364157 15,000 212 296 0
2019-06-20 05:22:29 GMT 55.285484 -4.355413 15,000 212 296 0
2019-06-20 05:22:26 GMT 55.285484 -4.355413 15,000 212 296 0
2019-06-20 05:22:23 GMT 55.288509 -4.352167 15,000 212 296 0
2019-06-20 05:22:20 GMT 55.291214 -4.349213 15,000 212 296 0
2019-06-20 05:22:17 GMT 55.295837 -4.344204 15,000 213 296 0
2019-06-20 05:22:14 GMT 55.299450 -4.340265 15,000 213 296 0
2019-06-20 05:22:11 GMT 55.302841 -4.336611 15,000 213 296 0
2019-06-20 05:22:08 GMT 55.305965 -4.333191 15,000 212 295 0
2019-06-20 05:22:04 GMT 55.309879 -4.328863 15,000 212 295 0
2019-06-20 05:22:01 GMT 55.314533 -4.323786 15,000 212 294 0
2019-06-20 05:21:58 GMT 55.317513 -4.320540 15,000 213 293 0
2019-06-20 05:21:55 GMT 55.322021 -4.315607 15,000 213 292 0
2019-06-20 05:21:52 GMT 55.324768 -4.312538 15,000 213 292 0
2019-06-20 05:21:49 GMT 55.327515 -4.309549 15,000 213 291 0
2019-06-20 05:21:46 GMT 55.334564 -4.301794 15,000 213 290 0
2019-06-20 05:21:40 GMT 55.337997 -4.298078 15,000 212 288 0
2019-06-20 05:21:37 GMT 55.341156 -4.294523 15,000 213 287 0
2019-06-20 05:21:33 GMT 55.346100 -4.289111 15,000 213 284 0
2019-06-20 05:21:30 GMT 55.349442 -4.285476 15,000 213 284 0
2019-06-20 05:21:26 GMT 55.353355 -4.281172 15,000 213 282 0
2019-06-20 05:21:23 GMT 55.356995 -4.277155 15,000 212 280 0
2019-06-20 05:21:20 GMT 55.363586 -4.269885 15,000 212 280 0
2019-06-20 05:21:17 GMT 55.363586 -4.269885 15,000 212 279 0
2019-06-20 05:21:13 GMT 55.368851 -4.264149 15,000 212 278 128
2019-06-20 05:21:09 GMT 55.371918 -4.260837 14,900 212 279 384
2019-06-20 05:21:05 GMT 55.376907 -4.255344 14,975 212 278 384
2019-06-20 05:21:02 GMT 55.379658 -4.252375 14,950 212 278 384
2019-06-20 05:20:59 GMT 55.383152 -4.248629 14,925 212 278 384
2019-06-20 05:20:55 GMT 55.391327 -4.239592 14,900 212 279 384
2019-06-20 05:20:49 GMT 55.394165 -4.236522 14,850 213 279 384
2019-06-20 05:20:46 GMT 55.396820 -4.233614 14,850 213 279 448
2019-06-20 05:20:43 GMT 55.401958 -4.227905 14,825 213 279 448
2019-06-20 05:20:40 GMT 55.404694 -4.224889 14,800 213 279 448
2019-06-20 05:20:37 GMT 55.407761 -4.221497 14,750 213 279 448
2019-06-20 05:20:34 GMT 55.410828 -4.218104 14,750 213 279 512
2019-06-20 05:20:31 GMT 55.414078 -4.214469 14,725 213 279 512
2019-06-20 05:20:27 GMT 55.418701 -4.209379 14,700 213 279 448
2019-06-20 05:20:24 GMT 55.421539 -4.206229 14,675 213 279 448
2019-06-20 05:20:21 GMT 55.425064 -4.202351 14,625 213 280 448
2019-06-20 05:20:18 GMT 55.428314 -4.198716 14,600 213 280 448
2019-06-20 05:20:14 GMT 55.433475 -4.193032 14,575 213 280 448
2019-06-20 05:20:11 GMT 55.436127 -4.190202 14,550 212 281 448
2019-06-20 05:20:08 GMT 55.439117 -4.186922 14,550 212 281 448
2019-06-20 05:20:05 GMT 55.441853 -4.183877 14,525 212 281 448
2019-06-20 05:20:01 GMT 55.447578 -4.177551 14,475 212 281 448
2019-06-20 05:19:58 GMT 55.450233 -4.174719 14,475 212 282 448
2019-06-20 05:19:55 GMT 55.452805 -4.171892 14,450 212 282 448
2019-06-20 05:19:52 GMT 55.457428 -4.166815 14,425 212 282 448
2019-06-20 05:19:49 GMT 55.460659 -4.163303 14,375 213 283 384
2019-06-20 05:19:46 GMT 55.463734 -4.159956 14,375 213 283 384
2019-06-20 05:19:42 GMT 55.468277 -4.154913 14,325 213 283 448
2019-06-20 05:19:39 GMT 55.472031 -4.150751 14,300 213 283 448
2019-06-20 05:19:36 GMT 55.475372 -4.147089 14,300 213 283 448
2019-06-20 05:19:32 GMT 55.478584 -4.143562 14,275 213 283 448
2019-06-20 05:19:28 GMT 55.483109 -4.138600 14,200 213 283 384
2019-06-20 05:19:25 GMT 55.486633 -4.134688 14,225 213 283 384
2019-06-20 05:19:21 GMT 55.490967 -4.129915 14,175 213 283 448
2019-06-20 05:19:18 GMT 55.494503 -4.126053 14,150 213 283 448
2019-06-20 05:19:15 GMT 55.497711 -4.122453 14,125 213 283 448
2019-06-20 05:19:12 GMT 55.500694 -4.119186 14,100 213 282 448
2019-06-20 05:19:09 GMT 55.504700 -4.114809 14,100 213 282 512
2019-06-20 05:19:06 GMT 55.508102 -4.110967 14,075 213 282 512
2019-06-20 05:19:03 GMT 55.510757 -4.108054 14,000 213 282 512
2019-06-20 05:19:00 GMT 55.513962 -4.104509 13,975 213 282 512
2019-06-20 05:18:57 GMT 55.517735 -4.100389 13,975 213 282 512
2019-06-20 05:18:54 GMT 55.521038 -4.096699 13,975 213 282 448
2019-06-20 05:18:51 GMT 55.526871 -4.090243 13,900 213 282 448
2019-06-20 05:18:48 GMT 55.530853 -4.085749 13,900 213 283 448
2019-06-20 05:18:45 GMT 55.530853 -4.085749 13,875 213 283 384
2019-06-20 05:18:42 GMT 55.533508 -4.082836 13,825 213 283 384
2019-06-20 05:18:39 GMT 55.537846 -4.078074 13,825 213 283 384
2019-06-20 05:18:36 GMT 55.540375 -4.075179 13,800 213 283 384
2019-06-20 05:18:33 GMT 55.544270 -4.070864 13,800 213 283 448
2019-06-20 05:18:30 GMT 55.547699 -4.067105 13,750 213 284 512
2019-06-20 05:18:26 GMT 55.552368 -4.061862 13,725 213 284 576
2019-06-20 05:18:23 GMT 55.555580 -4.058332 13,700 213 284 576
2019-06-20 05:18:19 GMT 55.560001 -4.053354 13,650 213 284 640
2019-06-20 05:18:16 GMT 55.564133 -4.048795 13,600 213 284 640
2019-06-20 05:18:11 GMT 55.569031 -4.043302 13,575 213 284 640
2019-06-20 05:18:08 GMT 55.571548 -4.040480 13,550 213 285 640
2019-06-20 05:18:05 GMT 55.575256 -4.036394 13,500 213 285 640
2019-06-20 05:18:01 GMT 55.580383 -4.030651 13,450 213 285 576
2019-06-20 05:17:58 GMT 55.588165 -4.021912 13,400 213 286 576
2019-06-20 05:17:54 GMT 55.588165 -4.021912 13,375 213 286 576
2019-06-20 05:17:49 GMT 55.593292 -4.016086 13,325 213 286 576
2019-06-20 05:17:46 GMT 55.597198 -4.011726 13,275 213 286 576
2019-06-20 05:17:43 GMT 55.599747 -4.008845 13,275 213 286 576
2019-06-20 05:17:40 GMT 55.603134 -4.005016 13,250 213 287 576
2019-06-20 05:17:36 GMT 55.607346 -4.000272 13,175 213 288 576
2019-06-20 05:17:33 GMT 55.610840 -3.996363 13,175 213 288 576
2019-06-20 05:17:29 GMT 55.615772 -3.990784 13,125 213 288 576
2019-06-20 05:17:26 GMT 55.618790 -3.987371 13,075 213 288 576
2019-06-20 05:17:23 GMT 55.622292 -3.983488 13,075 213 289 576
2019-06-20 05:17:18 GMT 55.628342 -3.976622 13,025 213 289 512
2019-06-20 05:17:15 GMT 55.634537 -3.969643 12,975 213 289 512
2019-06-20 05:17:08 GMT 55.638611 -3.965149 12,925 213 289 512
2019-06-20 05:17:05 GMT 55.643829 -3.959323 12,875 212 291 512
2019-06-20 05:17:02 GMT 55.646118 -3.956826 12,875 212 291 448
2019-06-20 05:16:58 GMT 55.650650 -3.951832 12,850 212 291 448
2019-06-20 05:16:55 GMT 55.653759 -3.948383 12,800 212 296 320
2019-06-20 05:16:52 GMT 55.657791 -3.943925 12,775 212 296 320
2019-06-20 05:16:49 GMT 55.660583 -3.940929 12,775 212 298 256
2019-06-20 05:16:46 GMT 55.663651 -3.937600 12,750 212 300 256
2019-06-20 05:16:42 GMT 55.669556 -3.931191 12,725 212 305 256
2019-06-20 05:16:38 GMT 55.674088 -3.926197 12,700 212 308 192
2019-06-20 05:16:34 GMT 55.682014 -3.917570 12,700 212 313 256
2019-06-20 05:16:28 GMT 55.686718 -3.912420 12,675 212 320 320
2019-06-20 05:16:24 GMT 55.691978 -3.906584 12,650 213 322 384
2019-06-20 05:16:21 GMT 55.694870 -3.903392 12,625 213 324 512
2019-06-20 05:16:17 GMT 55.700077 -3.897572 12,625 213 323 704
2019-06-20 05:16:14 GMT 55.704594 -3.892508 12,575 213 320 704
2019-06-20 05:16:10 GMT 55.709198 -3.887246 12,500 213 314 832
2019-06-20 05:16:07 GMT 55.716797 -3.878673 12,450 213 309 896
2019-06-20 05:16:04 GMT 55.716797 -3.878673 12,425 213 309 896
2019-06-20 05:16:01 GMT 55.719769 -3.875256 12,400 213 305 896
2019-06-20 05:15:57 GMT 55.724751 -3.869591 12,325 213 300 832
2019-06-20 05:15:54 GMT 55.729568 -3.864108 12,250 213 296 832
2019-06-20 05:15:51 GMT 55.731968 -3.861351 12,225 213 294 768
2019-06-20 05:15:47 GMT 55.736206 -3.856534 12,175 213 289 832
2019-06-20 05:15:42 GMT 55.744904 -3.846630 12,075 213 281 1024
2019-06-20 05:15:39 GMT 55.744904 -3.846630 12,025 213 280 1024
2019-06-20 05:15:36 GMT 55.748493 -3.842554 12,000 213 277 1024
2019-06-20 05:15:32 GMT 55.752502 -3.837974 11,925 213 274 1024
2019-06-20 05:15:29 GMT 55.756035 -3.834057 11,825 213 270 1216
2019-06-20 05:15:26 GMT 55.759277 -3.830317 11,825 213 270 1216
2019-06-20 05:15:21 GMT 55.765297 -3.823586 11,700 213 269 1280
2019-06-20 05:15:17 GMT 55.772598 -3.815502 11,575 212 268 1280
2019-06-20 05:15:14 GMT 55.772598 -3.815502 11,475 212 268 1216
2019-06-20 05:15:11 GMT 55.774704 -3.813171 11,475 212 268 1216
2019-06-20 05:15:08 GMT 55.778378 -3.809166 10,450 214 251 1024
2019-06-20 05:15:05 GMT 55.780563 -3.806679 11,350 212 268 1216
2019-06-20 05:15:01 GMT 55.785416 -3.801353 11,250 212 268 1216
2019-06-20 05:14:58 GMT 55.788986 -3.797441 11,000 213 265 1216
2019-06-20 05:14:55 GMT 55.791321 -3.794861 11,150 212 268 1216
2019-06-20 05:14:51 GMT 55.795120 -3.790699 11,075 212 268 1216
2019-06-20 05:14:48 GMT 55.798874 -3.786538 10,950 212 267 1152
2019-06-20 05:14:45 GMT 55.802032 -3.783125 10,925 212 266 1152
2019-06-20 05:14:42 GMT 55.805473 -3.779297 10,850 213 265 1216
2019-06-20 05:14:39 GMT 55.812550 -3.771400 10,725 213 263 1152
2019-06-20 05:14:35 GMT 55.812550 -3.771400 10,725 213 263 1152
2019-06-20 05:14:32 GMT 55.815807 -3.767624 10,650 213 261 1088
2019-06-20 05:14:28 GMT 55.820160 -3.762651 10,625 213 259 1088
2019-06-20 05:14:25 GMT 55.822586 -3.759904 10,525 214 249 1216
2019-06-20 05:14:22 GMT 55.825928 -3.756076 10,425 214 248 1408
2019-06-20 05:14:19 GMT 55.828331 -3.753204 10,425 214 246 1600
2019-06-20 05:14:15 GMT 55.832977 -3.747753 10,275 214 243 2560
2019-06-20 05:14:10 GMT 55.837036 -3.743076 10,050 214 243 2752
2019-06-20 05:14:07 GMT 55.839752 -3.739846 9,975 214 243 2688
2019-06-20 05:14:04 GMT 55.842484 -3.736725 9,800 213 243 2432
2019-06-20 05:14:00 GMT 55.846939 -3.731606 9,625 213 243 2304
2019-06-20 05:13:57 GMT 55.852066 -3.725947 9,050 212 242 2368
2019-06-20 05:13:50 GMT 55.856644 -3.721119 9,200 211 239 2432
2019-06-20 05:13:47 GMT 55.859798 -3.717842 9,175 209 240 2624
2019-06-20 05:13:44 GMT 55.861336 -3.716297 9,050 210 239 2688
2019-06-20 05:13:41 GMT 55.864700 -3.712963 8,825 209 239 2624
2019-06-20 05:13:38 GMT 55.867340 -3.710375 8,700 209 239 2496
2019-06-20 05:13:34 GMT 55.871384 -3.706637 8,525 209 238 2560
2019-06-20 05:13:29 GMT 55.876740 -3.701144 8,275 219 236 2688
2019-06-20 05:13:26 GMT 55.879349 -3.697648 8,150 224 236 2560
2019-06-20 05:13:23 GMT 55.880936 -3.695183 8,050 228 235 2560
2019-06-20 05:13:20 GMT 55.883469 -3.690158 7,850 254 234 2048
2019-06-20 05:13:17 GMT 55.885574 -3.684665 7,750 247 235 2176
2019-06-20 05:13:13 GMT 55.887451 -3.677673 7,625 254 234 2048
2019-06-20 05:13:10 GMT 55.888321 -3.672929 7,550 256 234 2176
2019-06-20 05:13:06 GMT 55.889591 -3.662996 7,325 260 232 2368
2019-06-20 05:13:03 GMT 55.889919 -3.659992 7,275 260 232 2304
2019-06-20 05:13:00 GMT 55.890572 -3.653984 6,875 259 230 2304
2019-06-20 05:12:56 GMT 55.891479 -3.645630 6,850 259 229 2368
2019-06-20 05:12:53 GMT 55.891983 -3.640803 6,850 260 229 2368
2019-06-20 05:12:50 GMT 55.892616 -3.635101 6,675 260 226 2496
2019-06-20 05:12:46 GMT 55.893501 -3.626604 6,625 260 226 2496
2019-06-20 05:12:43 GMT 55.893967 -3.622227 6,525 260 225 2560
2019-06-20 05:12:40 GMT 55.894669 -3.616047 6,275 260 224 2624
2019-06-20 05:12:37 GMT 55.895180 -3.611326 6,150 260 224 2624
2019-06-20 05:12:33 GMT 55.896515 -3.598772 5,975 260 224 2752
2019-06-20 05:12:30 GMT 55.896515 -3.598772 5,800 260 224 2688
2019-06-20 05:12:27 GMT 55.897041 -3.593559 5,700 260 224 2624
2019-06-20 05:12:23 GMT 55.897888 -3.585704 5,500 260 223 2496
2019-06-20 05:12:20 GMT 55.898342 -3.581200 5,400 260 223 2432
2019-06-20 05:12:17 GMT 55.898849 -3.576716 5,300 260 222 2496
2019-06-20 05:12:13 GMT 55.899879 -3.566437 5,050 260 222 2752
2019-06-20 05:12:10 GMT 55.900497 -3.560153 4,875 261 221 2624
2019-06-20 05:12:07 GMT 55.900719 -3.558197 4,825 261 221 2624
2019-06-20 05:12:04 GMT 55.901459 -3.550498 4,625 261 220 2560
2019-06-20 05:12:01 GMT 55.901791 -3.547039 4,550 261 220 2624
2019-06-20 05:11:57 GMT 55.902466 -3.540095 4,450 261 219 2624
2019-06-20 05:11:52 GMT 55.903336 -3.531272 4,150 259 217 2688
2019-06-20 05:11:47 GMT 55.904434 -3.521784 4,000 257 216 2880
2019-06-20 05:11:43 GMT 55.905560 -3.514423 3,650 252 215 2624
2019-06-20 05:11:40 GMT 55.906399 -3.509703 3,650 252 215 2624
2019-06-20 05:11:37 GMT 55.907318 -3.504888 3,425 249 214 2944
2019-06-20 05:11:32 GMT 55.909145 -3.496828 3,175 245 214 3200
2019-06-20 05:11:28 GMT 55.910614 -3.491322 2,875 241 215 2048
2019-06-20 05:11:24 GMT 55.913315 -3.482583 2,750 239 212 1728
2019-06-20 05:11:21 GMT 55.914078 -3.480349 2,700 239 211 1792
2019-06-20 05:11:15 GMT 55.917385 -3.470650 2,475 240 205 2368
2019-06-20 05:11:11 GMT 55.918900 -3.466103 2,350 241 204 2368
2019-06-20 05:11:08 GMT 55.920776 -3.460277 2,200 241 202 1600
2019-06-20 05:11:05 GMT 55.922691 -3.454342 2,100 241 197 704
2019-06-20 05:11:01 GMT 55.923615 -3.451455 2,100 241 194 704
2019-06-20 05:10:56 GMT 55.925995 -3.444214 2,025 239 187 896
2019-06-20 05:10:50 GMT 55.928604 -3.436747 1,900 239 177 1216
2019-06-20 05:10:47 GMT 55.930046 -3.432541 1,825 239 174 1024
2019-06-20 05:10:44 GMT 55.931396 -3.428483 1,800 239 171 768
2019-06-20 05:10:41 GMT 55.932606 -3.425074 1,725 239 163 1024
2019-06-20 05:10:34 GMT 55.935307 -3.417091 1,575 240 156 1600
2019-06-20 05:10:30 GMT 55.936657 -3.413143 1,475 240 155 2048
2019-06-20 05:10:26 GMT 55.938332 -3.408079 1,300 240 154 2560
2019-06-20 05:10:23 GMT 55.939224 -3.405346 1,175 240 155 2880
2019-06-20 05:10:20 GMT 55.940147 -3.402586 1,100 240 155 2944
2019-06-20 05:10:11 GMT 55.943436 -3.392362 625 241 160 2496
2019-06-20 05:10:03 GMT 55.946823 -3.381937 0 239 165
2019-06-20 05:09:51 GMT 55.950714 -3.370399 0 239 130
2019-06-20 05:07:18 GMT 55.952980 -3.357988 0 59 13
2019-06-20 05:06:57 GMT 55.952381 -3.359778 0 59 13
2019-06-20 05:06:45 GMT 55.952019 -3.360829 0 59 13
2019-06-20 05:06:40 GMT 55.951870 -3.361255 0 59 13
2019-06-20 05:06:27 GMT 55.951508 -3.362353 0 59 13

Making use of Plane Finder data

You are free to use the raw flight data, aircraft information and images provided in this report for your own purposes provided the data is correctly attributed to Plane Finder. We ask that you please credit Plane Finder and link to planefinder.net in close proximity to the content.

Optionally one of the following logos (no smaller then 150x24px) can be used and must link to planefinder.net

Embedding the Plane Finder map

You are welcome to embed the Plane Finder playback map on your website to offer visitors a more interactive experience. We suggest using the following HTML code:

<iframe src="//planefinder.net/data/report/BY1454-G-FDZT-7700-squawk-2019-06-20/map" width="800" height="600" seamless="seamless"></iframe>

Where our data comes from

Plane Finder has a global network of data feeds and antenna radars that receive data broadcast directly from aircraft. The primary technologies used are ADS-B and MLAT. We also show feeds from the FAA and a FLARM glider feed.

Click here to find out more about the Plane Finder network.

How we collect our data